Time;durP1;ratioP1;P1;durP2;ratioP2;P2;SDS_P1;SDS_P2;PMS_P1;PMS_P2;Temp;Humidity;BMP_temperature;BMP_pressure;BME280_temperature;BME280_humidity;BME280_pressure;Samples;Min_cycle;Max_cycle;Signal;HPM_P1;HPM_P2
2022/02/14 00:00:59;;;;;;;0.68;0.60;;;7.70;99.90;;;;;;5073402;28;20062;-71
2022/02/14 00:03:25;;;;;;;0.10;0.10;;;7.70;99.90;;;;;;5073629;28;20067;-71
2022/02/14 00:05:51;;;;;;;0.90;0.90;;;7.60;99.90;;;;;;5071995;28;20032;-71
2022/02/14 00:08:17;;;;;;;0.57;0.57;;;7.60;99.90;;;;;;5073600;28;20115;-71
2022/02/14 00:10:42;;;;;;;0.50;0.50;;;7.60;99.90;;;;;;5073577;28;20044;-71
2022/02/14 00:13:08;;;;;;;0.10;0.10;;;7.60;99.90;;;;;;5072356;28;20493;-71
2022/02/14 00:15:34;;;;;;;0.00;0.00;;;7.50;99.90;;;;;;5072953;28;20101;-71
2022/02/14 00:18:00;;;;;;;0.30;0.30;;;7.50;99.90;;;;;;5073464;28;20048;-71
2022/02/14 00:20:26;;;;;;;0.00;0.00;;;7.40;99.90;;;;;;5073080;28;20056;-71
2022/02/14 00:22:52;;;;;;;0.20;0.20;;;7.40;99.90;;;;;;5072064;28;20119;-71
2022/02/14 00:25:19;;;;;;;0.00;0.00;;;7.40;99.90;;;;;;5073025;28;20033;-71
2022/02/14 00:27:46;;;;;;;0.10;0.10;;;7.40;99.90;;;;;;5072981;28;20558;-71
2022/02/14 00:30:13;;;;;;;0.20;0.20;;;7.30;99.90;;;;;;5071503;28;20089;-71
2022/02/14 00:32:39;;;;;;;0.10;0.10;;;7.30;99.90;;;;;;5072842;28;20340;-70
2022/02/14 00:35:05;;;;;;;0.08;0.08;;;7.30;99.90;;;;;;5072984;28;20039;-70
2022/02/14 00:37:31;;;;;;;0.40;0.40;;;7.20;99.90;;;;;;5072807;28;20029;-71
2022/02/14 00:39:57;;;;;;;0.00;0.00;;;7.20;99.90;;;;;;5073033;28;20487;-72
2022/02/14 00:42:24;;;;;;;0.00;0.00;;;7.20;99.90;;;;;;5072686;28;20024;-71
2022/02/14 00:44:50;;;;;;;0.35;0.35;;;7.30;99.90;;;;;;5088172;28;20389;-71
2022/02/14 00:47:16;;;;;;;0.10;0.10;;;7.30;99.90;;;;;;5072320;28;20059;-71
2022/02/14 00:49:42;;;;;;;0.57;0.57;;;7.30;99.90;;;;;;5072570;28;20036;-71
2022/02/14 00:52:08;;;;;;;0.20;0.20;;;7.30;99.90;;;;;;5072528;28;20060;-71
2022/02/14 00:54:34;;;;;;;0.00;0.00;;;7.30;99.90;;;;;;5072533;28;20495;-71
2022/02/14 00:57:00;;;;;;;0.10;0.10;;;7.30;99.90;;;;;;5072379;28;20036;-71
2022/02/14 00:59:27;;;;;;;1.02;0.68;;;7.30;99.90;;;;;;5072302;28;20477;-71
2022/02/14 01:01:53;;;;;;;0.10;0.10;;;7.30;99.90;;;;;;5072279;28;20054;-71
2022/02/14 01:04:19;;;;;;;0.20;0.20;;;7.20;99.90;;;;;;5072400;28;20036;-71
2022/02/14 01:06:45;;;;;;;0.77;0.73;;;7.20;99.90;;;;;;5071085;28;20028;-71
2022/02/14 01:09:12;;;;;;;0.00;0.00;;;7.20;99.90;;;;;;5071957;28;20036;-71
2022/02/14 01:11:38;;;;;;;0.10;0.10;;;7.10;99.90;;;;;;5071912;28;20067;-71
2022/02/14 01:14:05;;;;;;;0.10;0.10;;;7.10;99.90;;;;;;5072314;28;20060;-71
2022/02/14 01:16:31;;;;;;;0.32;0.32;;;7.00;99.90;;;;;;5070774;28;20027;-71
2022/02/14 01:18:57;;;;;;;0.00;0.00;;;7.00;99.90;;;;;;5072278;28;20029;-70
2022/02/14 01:21:22;;;;;;;0.00;0.00;;;7.00;99.90;;;;;;5071828;28;20131;-70
2022/02/14 01:23:48;;;;;;;0.13;0.13;;;6.90;99.90;;;;;;5071813;28;20098;-70
2022/02/14 01:26:14;;;;;;;0.28;0.28;;;6.90;99.90;;;;;;5072008;28;20065;-70
2022/02/14 01:28:40;;;;;;;0.10;0.10;;;6.90;99.90;;;;;;5071534;28;20112;-70
2022/02/14 01:31:06;;;;;;;0.75;0.70;;;6.90;99.90;;;;;;5072090;28;20028;-70
2022/02/14 01:33:31;;;;;;;0.15;0.15;;;6.90;99.90;;;;;;5071949;28;20059;-70
2022/02/14 01:35:57;;;;;;;0.03;0.03;;;6.80;99.90;;;;;;5072006;28;20548;-70
2022/02/14 01:38:23;;;;;;;0.10;0.10;;;6.80;99.90;;;;;;5071488;28;20028;-70
2022/02/14 01:40:49;;;;;;;0.10;0.10;;;6.90;99.90;;;;;;5071723;28;20097;-69
2022/02/14 01:43:15;;;;;;;0.50;0.50;;;6.90;99.90;;;;;;5070687;28;20036;-70
2022/02/14 01:45:43;;;;;;;0.00;0.00;;;7.00;99.90;;;;;;5071468;28;20492;-70
2022/02/14 01:48:10;;;;;;;0.28;0.28;;;7.10;99.90;;;;;;5071607;28;20119;-70
2022/02/14 01:50:36;;;;;;;0.20;0.20;;;7.10;99.90;;;;;;5070172;28;20051;-70
2022/02/14 01:53:03;;;;;;;0.10;0.10;;;7.00;99.90;;;;;;5070576;28;20082;-70
2022/02/14 01:55:30;;;;;;;0.00;0.00;;;7.00;99.90;;;;;;5071119;28;20090;-70
2022/02/14 01:57:56;;;;;;;0.00;0.00;;;6.90;99.90;;;;;;5071628;28;20040;-70
2022/02/14 02:00:22;;;;;;;0.08;0.08;;;6.90;99.90;;;;;;5071530;28;20374;-71
2022/02/14 02:02:47;;;;;;;0.08;0.08;;;7.00;99.90;;;;;;5071337;28;20746;-71
2022/02/14 02:05:14;;;;;;;0.10;0.10;;;6.90;99.90;;;;;;5070120;28;20131;-71
2022/02/14 02:07:40;;;;;;;0.77;0.77;;;6.90;99.90;;;;;;5071293;28;20436;-71
2022/02/14 02:10:09;;;;;;;0.03;0.03;;;6.90;99.90;;;;;;5071442;28;20051;-71
2022/02/14 02:12:36;;;;;;;2.58;2.30;;;6.90;99.90;;;;;;5086863;28;20086;-71
2022/02/14 02:15:05;;;;;;;0.32;0.32;;;6.90;99.90;;;;;;5071544;28;20033;-71
2022/02/14 02:17:40;;;;;;;0.00;0.00;;;6.90;99.90;;;;;;5071086;28;20025;-71
2022/02/14 02:20:09;;;;;;;4.68;2.63;;;6.80;99.90;;;;;;5070673;28;20040;-71
2022/02/14 02:22:36;;;;;;;0.30;0.30;;;6.70;99.90;;;;;;5074882;28;20120;-71
2022/02/14 02:25:03;;;;;;;0.00;0.00;;;6.70;99.90;;;;;;5075251;28;20024;-71
2022/02/14 02:27:29;;;;;;;0.55;0.38;;;6.70;99.90;;;;;;5075489;28;20098;-71
2022/02/14 02:29:58;;;;;;;0.30;0.30;;;6.60;99.90;;;;;;5075314;28;20443;-71
2022/02/14 02:32:27;;;;;;;0.57;0.57;;;6.50;99.90;;;;;;5074261;28;20051;-71
2022/02/14 02:34:53;;;;;;;0.15;0.15;;;6.50;99.90;;;;;;5074374;28;20112;-72
2022/02/14 02:37:19;;;;;;;0.95;0.43;;;6.60;99.90;;;;;;5075228;28;20123;-71
2022/02/14 02:39:46;;;;;;;2.63;1.35;;;6.70;99.90;;;;;;5073742;28;20572;-71
2022/02/14 02:42:15;;;;;;;0.05;0.05;;;6.70;99.90;;;;;;5074127;28;20056;-71
2022/02/14 02:44:42;;;;;;;0.77;0.77;;;6.80;99.90;;;;;;5074910;28;20055;-71
2022/02/14 02:47:14;;;;;;;0.00;0.00;;;6.80;99.90;;;;;;5075029;28;20048;-69
2022/02/14 02:49:41;;;;;;;0.08;0.08;;;6.80;99.90;;;;;;5075229;28;20430;-70
2022/02/14 02:52:09;;;;;;;0.20;0.20;;;6.90;99.90;;;;;;5074962;28;20142;-70
2022/02/14 02:54:36;;;;;;;0.08;0.08;;;6.90;99.90;;;;;;5073611;28;20462;-70
2022/02/14 02:57:02;;;;;;;0.20;0.20;;;6.90;99.90;;;;;;5073736;28;20389;-70
2022/02/14 02:59:33;;;;;;;1.50;1.40;;;6.90;99.90;;;;;;5074699;28;20385;-70
2022/02/14 03:02:02;;;;;;;0.10;0.10;;;7.00;99.90;;;;;;5073501;28;20025;-70
2022/02/14 03:04:28;;;;;;;0.85;0.85;;;7.00;99.90;;;;;;5074649;28;20040;-70
2022/02/14 03:06:54;;;;;;;0.47;0.47;;;7.00;99.90;;;;;;5073590;28;20036;-70
2022/02/14 03:09:20;;;;;;;4.18;1.65;;;7.00;99.90;;;;;;5073485;28;20060;-71
2022/02/14 03:11:45;;;;;;;0.10;0.10;;;7.00;99.90;;;;;;5074816;28;20055;-71
2022/02/14 03:14:13;;;;;;;0.08;0.08;;;7.00;99.90;;;;;;5074866;28;20074;-70
2022/02/14 03:16:40;;;;;;;4.00;1.95;;;7.00;99.90;;;;;;5074614;28;20028;-71
2022/02/14 03:19:07;;;;;;;0.10;0.10;;;6.90;99.90;;;;;;5074484;28;20366;-70
2022/02/14 03:21:34;;;;;;;0.13;0.13;;;6.80;99.90;;;;;;5074606;28;20052;-70
2022/02/14 03:24:00;;;;;;;0.03;0.03;;;6.70;99.90;;;;;;5074650;28;20051;-70
2022/02/14 03:26:26;;;;;;;0.00;0.00;;;6.60;99.90;;;;;;5074746;28;20036;-70
2022/02/14 03:28:55;;;;;;;0.30;0.30;;;6.60;99.90;;;;;;5074030;28;20029;-70
2022/02/14 03:31:22;;;;;;;0.30;0.30;;;6.50;99.90;;;;;;5074605;28;20105;-70
2022/02/14 03:33:49;;;;;;;0.00;0.00;;;6.60;99.90;;;;;;5073302;28;20036;-70
2022/02/14 03:36:18;;;;;;;0.00;0.00;;;6.50;99.90;;;;;;5073269;28;20536;-71
2022/02/14 03:38:46;;;;;;;0.38;0.38;;;6.50;99.90;;;;;;5074213;28;20053;-70
2022/02/14 03:41:12;;;;;;;0.08;0.08;;;6.50;99.90;;;;;;5074602;28;20059;-70
2022/02/14 03:43:38;;;;;;;0.20;0.20;;;6.40;99.90;;;;;;5072803;28;20473;-70
2022/02/14 03:46:04;;;;;;;0.10;0.10;;;6.40;99.90;;;;;;5074378;28;20044;-70
2022/02/14 03:48:30;;;;;;;0.00;0.00;;;6.30;99.90;;;;;;5073745;28;20556;-70
2022/02/14 03:50:56;;;;;;;0.22;0.22;;;6.30;99.90;;;;;;5073887;28;20147;-70
2022/02/14 03:53:23;;;;;;;0.10;0.10;;;6.20;99.90;;;;;;5074152;28;20385;-70
2022/02/14 03:55:50;;;;;;;0.00;0.00;;;6.20;99.90;;;;;;5073809;28;20036;-70
2022/02/14 03:58:16;;;;;;;0.20;0.20;;;6.20;99.90;;;;;;5074154;28;20099;-70
2022/02/14 04:00:42;;;;;;;0.25;0.25;;;6.20;99.90;;;;;;5073448;28;20444;-70
2022/02/14 04:03:08;;;;;;;0.00;0.00;;;6.30;99.90;;;;;;5074015;28;20040;-70
2022/02/14 04:05:34;;;;;;;0.00;0.00;;;6.20;99.90;;;;;;5073557;28;20036;-71
2022/02/14 04:08:00;;;;;;;0.00;0.00;;;6.20;99.90;;;;;;5072611;28;20036;-71
2022/02/14 04:10:27;;;;;;;0.10;0.10;;;6.20;99.90;;;;;;5072248;28;20032;-70
2022/02/14 04:12:54;;;;;;;0.00;0.00;;;6.20;99.90;;;;;;5073487;28;20071;-70
2022/02/14 04:15:21;;;;;;;0.00;0.00;;;6.10;99.90;;;;;;5072117;28;20032;-70
2022/02/14 04:17:47;;;;;;;0.10;0.10;;;6.10;99.90;;;;;;5072180;28;20032;-70
2022/02/14 04:20:13;;;;;;;0.32;0.32;;;6.10;99.90;;;;;;5073605;28;20055;-70
2022/02/14 04:22:43;;;;;;;0.45;0.45;;;6.10;99.90;;;;;;5072235;28;20028;-71
2022/02/14 04:25:11;;;;;;;2.38;2.17;;;6.10;99.90;;;;;;5073752;28;20037;-70
2022/02/14 04:27:37;;;;;;;1.10;0.77;;;5.90;99.90;;;;;;5071917;28;20393;-70
2022/02/14 04:30:05;;;;;;;0.10;0.10;;;5.90;99.90;;;;;;5072019;28;20039;-69
2022/02/14 04:32:32;;;;;;;0.30;0.30;;;5.90;99.90;;;;;;5088758;28;20056;-70
2022/02/14 04:35:00;;;;;;;0.20;0.20;;;5.90;99.90;;;;;;5073195;28;20032;-70
2022/02/14 04:37:26;;;;;;;0.10;0.10;;;5.80;99.90;;;;;;5073318;28;20084;-70
2022/02/14 04:39:52;;;;;;;0.20;0.20;;;5.80;99.90;;;;;;5073203;28;20533;-70
2022/02/14 04:42:18;;;;;;;0.43;0.43;;;5.80;99.90;;;;;;5042650;28;20056;-71
2022/02/14 04:44:43;;;;;;;0.10;0.10;;;5.80;99.90;;;;;;5070003;28;20075;-77
2022/02/14 04:47:09;;;;;;;0.32;0.30;;;5.80;99.90;;;;;;5071779;28;20123;-75
2022/02/14 04:49:35;;;;;;;0.05;0.05;;;5.80;99.90;;;;;;5072432;28;20123;-80
2022/02/14 04:52:01;;;;;;;0.10;0.10;;;5.70;99.90;;;;;;5069033;28;20017;-71
2022/02/14 04:54:27;;;;;;;0.20;0.20;;;5.90;99.90;;;;;;5052625;28;20090;-72
2022/02/14 04:56:53;;;;;;;0.30;0.30;;;5.90;99.90;;;;;;5051160;28;20375;-64
2022/02/14 04:59:19;;;;;;;0.10;0.10;;;5.80;99.90;;;;;;5052429;28;20045;-64
2022/02/14 05:01:44;;;;;;;0.20;0.20;;;5.90;99.90;;;;;;5052352;28;20052;-65
2022/02/14 05:04:10;;;;;;;0.10;0.10;;;5.80;99.90;;;;;;5052495;28;20078;-64
2022/02/14 05:06:36;;;;;;;0.10;0.10;;;5.80;99.90;;;;;;5052281;28;20033;-64
2022/02/14 05:09:03;;;;;;;0.28;0.28;;;5.70;99.90;;;;;;5052300;28;20385;-64
2022/02/14 05:11:29;;;;;;;0.10;0.10;;;5.70;99.90;;;;;;5063028;28;20036;-64
2022/02/14 05:13:54;;;;;;;0.00;0.00;;;5.70;99.90;;;;;;5071467;28;20154;-64
2022/02/14 05:16:23;;;;;;;0.30;0.30;;;5.70;99.90;;;;;;5087800;28;20050;-64
2022/02/14 05:18:52;;;;;;;0.10;0.10;;;5.70;99.90;;;;;;5072057;28;20090;-65
2022/02/14 05:21:18;;;;;;;5.25;4.55;;;5.70;99.90;;;;;;5072339;28;20508;-64
2022/02/14 05:23:44;;;;;;;0.13;0.13;;;5.80;99.90;;;;;;5070624;28;20028;-64
2022/02/14 05:26:10;;;;;;;0.10;0.10;;;5.90;99.90;;;;;;5070789;28;20032;-64
2022/02/14 05:28:36;;;;;;;0.10;0.10;;;5.80;99.90;;;;;;5070537;28;20025;-64
2022/02/14 05:31:02;;;;;;;0.05;0.05;;;5.90;99.90;;;;;;5070769;28;20032;-65
2022/02/14 05:33:28;;;;;;;0.00;0.00;;;5.90;99.90;;;;;;5071011;28;20107;-65
2022/02/14 05:35:53;;;;;;;0.20;0.20;;;5.90;99.90;;;;;;5071626;28;20044;-66
2022/02/14 05:38:19;;;;;;;0.13;0.13;;;5.90;99.90;;;;;;5072080;28;20038;-68
2022/02/14 05:40:45;;;;;;;0.05;0.05;;;5.90;99.90;;;;;;5070374;28;20106;-67
2022/02/14 05:43:13;;;;;;;0.10;0.10;;;5.90;99.90;;;;;;5071894;28;20037;-70
2022/02/14 05:45:39;;;;;;;0.45;0.17;;;5.90;99.90;;;;;;5050292;28;20438;-67
2022/02/14 05:48:05;;;;;;;0.10;0.10;;;5.90;99.90;;;;;;5066811;28;20076;-67
2022/02/14 05:50:31;;;;;;;0.00;0.00;;;5.90;99.90;;;;;;5050258;28;20036;-66
2022/02/14 05:52:57;;;;;;;0.13;0.13;;;5.90;99.90;;;;;;5050199;28;20075;-68
2022/02/14 05:55:23;;;;;;;0.32;0.30;;;5.90;99.90;;;;;;5051302;28;20041;-67
2022/02/14 05:57:48;;;;;;;0.00;0.00;;;5.90;99.90;;;;;;5051568;28;20043;-66
2022/02/14 06:00:15;;;;;;;0.13;0.13;;;5.90;99.90;;;;;;5051276;28;20041;-66
2022/02/14 06:02:41;;;;;;;0.50;0.50;;;5.90;99.90;;;;;;5049950;28;20026;-68
2022/02/14 06:05:07;;;;;;;0.47;0.47;;;5.80;99.90;;;;;;5051742;28;20041;-68
2022/02/14 06:07:33;;;;;;;0.10;0.10;;;5.80;99.90;;;;;;5050071;28;20412;-68
2022/02/14 06:10:00;;;;;;;0.03;0.03;;;5.80;99.90;;;;;;5050336;28;20037;-68
2022/02/14 06:12:26;;;;;;;0.10;0.10;;;5.80;99.90;;;;;;5051521;28;20041;-65
2022/02/14 06:14:51;;;;;;;0.65;0.65;;;5.80;99.90;;;;;;5059190;28;20024;-66
2022/02/14 06:17:17;;;;;;;0.00;0.00;;;5.80;99.90;;;;;;5071647;28;20397;-67
2022/02/14 06:19:46;;;;;;;0.00;0.00;;;5.80;99.90;;;;;;5070060;28;20047;-66
2022/02/14 06:22:12;;;;;;;0.52;0.52;;;5.80;99.90;;;;;;5053386;28;20032;-66
2022/02/14 06:24:38;;;;;;;0.25;0.25;;;5.90;99.90;;;;;;5071101;28;20036;-66
2022/02/14 06:27:04;;;;;;;0.30;0.30;;;6.00;99.90;;;;;;5070352;28;20033;-66
2022/02/14 06:29:30;;;;;;;0.10;0.10;;;6.00;99.90;;;;;;5069840;28;20119;-67
2022/02/14 06:31:56;;;;;;;0.00;0.00;;;6.00;99.90;;;;;;5069556;28;20113;-66
2022/02/14 06:34:22;;;;;;;0.30;0.30;;;6.10;99.90;;;;;;5071138;28;20603;-66
2022/02/14 06:36:48;;;;;;;2.63;1.77;;;6.10;99.90;;;;;;5071389;28;20039;-66
2022/02/14 06:39:14;;;;;;;0.00;0.00;;;6.10;99.90;;;;;;5069679;28;20033;-66
2022/02/14 06:41:40;;;;;;;0.10;0.10;;;6.20;99.90;;;;;;5086777;28;20051;-66
2022/02/14 06:44:05;;;;;;;0.00;0.00;;;6.20;99.90;;;;;;5070998;28;20063;-66
2022/02/14 06:46:31;;;;;;;0.40;0.40;;;6.20;99.90;;;;;;5071158;28;20481;-66
2022/02/14 06:48:58;;;;;;;0.10;0.10;;;6.20;99.90;;;;;;5070817;28;20059;-66
2022/02/14 06:51:24;;;;;;;0.00;0.00;;;6.20;99.90;;;;;;5071119;28;20366;-67
2022/02/14 06:53:50;;;;;;;0.10;0.10;;;6.30;99.90;;;;;;5085926;28;20552;-66
2022/02/14 06:56:18;;;;;;;0.10;0.10;;;6.20;99.90;;;;;;5071027;28;20393;-65
2022/02/14 06:58:44;;;;;;;0.45;0.45;;;6.30;99.90;;;;;;5086091;28;20459;-66
2022/02/14 07:01:10;;;;;;;0.20;0.20;;;6.30;99.90;;;;;;5066329;28;20037;-66
2022/02/14 07:03:37;;;;;;;0.10;0.10;;;6.30;99.90;;;;;;5051154;28;20128;-66
2022/02/14 07:06:07;;;;;;;0.28;0.28;;;6.30;99.90;;;;;;5051108;28;20075;-66
2022/02/14 07:08:34;;;;;;;0.17;0.15;;;6.40;99.90;;;;;;5058236;28;20485;-66
2022/02/14 07:11:00;;;;;;;0.20;0.20;;;6.50;99.90;;;;;;5072395;28;20032;-66
2022/02/14 07:13:26;;;;;;;0.20;0.20;;;6.50;99.90;;;;;;5069698;28;20029;-67
2022/02/14 07:15:53;;;;;;;1.23;0.73;;;6.60;99.90;;;;;;5054129;28;20036;-66
2022/02/14 07:18:19;;;;;;;0.57;0.57;;;6.60;99.90;;;;;;5054316;28;20611;-65
2022/02/14 07:20:45;;;;;;;0.00;0.00;;;6.60;99.90;;;;;;5059804;28;20036;-67
2022/02/14 07:23:10;;;;;;;1.55;1.23;;;6.60;99.90;;;;;;5073127;28;20032;-66
2022/02/14 07:25:36;;;;;;;0.22;0.22;;;6.70;99.90;;;;;;5074386;28;20566;-68
2022/02/14 07:28:03;;;;;;;0.10;0.10;;;6.70;99.90;;;;;;5072685;28;20081;-66
2022/02/14 07:30:28;;;;;;;1.38;0.63;;;6.80;99.90;;;;;;5072850;28;20044;-66
2022/02/14 07:32:55;;;;;;;0.10;0.10;;;6.70;99.90;;;;;;5073905;28;20033;-66
2022/02/14 07:35:21;;;;;;;0.00;0.00;;;6.80;99.90;;;;;;5072977;28;20072;-67
2022/02/14 07:37:46;;;;;;;0.00;0.00;;;6.80;99.90;;;;;;5072749;28;20068;-67
2022/02/14 07:40:16;;;;;;;0.65;0.65;;;6.80;99.90;;;;;;5074252;28;20363;-68
2022/02/14 07:42:43;;;;;;;1.17;1.08;;;6.90;99.90;;;;;;5073265;28;20029;-68
2022/02/14 07:45:10;;;;;;;0.13;0.10;;;7.00;99.90;;;;;;5073707;28;20040;-68
2022/02/14 07:47:36;;;;;;;2.63;1.55;;;6.90;99.90;;;;;;5073683;28;20051;-68
2022/02/14 07:50:06;;;;;;;0.10;0.10;;;6.80;99.90;;;;;;5072716;28;20063;-68
2022/02/14 07:52:33;;;;;;;0.20;0.20;;;6.80;99.90;;;;;;5072587;28;20039;-68
2022/02/14 07:54:59;;;;;;;0.10;0.10;;;6.90;99.90;;;;;;5072776;28;20036;-68
2022/02/14 07:57:25;;;;;;;0.30;0.30;;;6.80;99.90;;;;;;5055845;28;20035;-68
2022/02/14 07:59:51;;;;;;;0.20;0.20;;;6.90;99.90;;;;;;5073726;28;20090;-66
2022/02/14 08:02:17;;;;;;;0.40;0.40;;;7.00;99.90;;;;;;5073922;28;20044;-66
2022/02/14 08:04:46;;;;;;;0.00;0.00;;;7.00;99.90;;;;;;5073435;28;20116;-63
2022/02/14 08:07:13;;;;;;;1.75;1.45;;;7.10;99.90;;;;;;5073420;28;20036;-65
2022/02/14 08:09:39;;;;;;;0.93;0.93;;;7.10;99.90;;;;;;5073408;28;20047;-65
2022/02/14 08:12:08;;;;;;;0.00;0.00;;;7.10;99.90;;;;;;5055137;28;20047;-65
2022/02/14 08:14:37;;;;;;;0.00;0.00;;;7.20;99.90;;;;;;5068038;28;20035;-64
2022/02/14 08:17:05;;;;;;;0.60;0.60;;;7.30;99.90;;;;;;5071663;28;20052;-65
2022/02/14 08:19:30;;;;;;;0.55;0.55;;;7.30;99.90;;;;;;5072446;28;20083;-65
2022/02/14 08:21:56;;;;;;;0.10;0.10;;;7.40;99.90;;;;;;5073211;28;20476;-65
2022/02/14 08:24:23;;;;;;;0.00;0.00;;;7.40;99.90;;;;;;5073147;28;20032;-65
2022/02/14 08:26:50;;;;;;;0.00;0.00;;;7.40;99.90;;;;;;5071980;28;20477;-65
2022/02/14 08:29:16;;;;;;;0.00;0.00;;;7.60;99.90;;;;;;5072607;28;20032;-65
2022/02/14 08:31:42;;;;;;;0.10;0.10;;;7.70;99.90;;;;;;5071830;28;20500;-65
2022/02/14 08:34:07;;;;;;;0.03;0.03;;;7.70;99.90;;;;;;5072651;28;20037;-65
2022/02/14 08:36:33;;;;;;;0.10;0.10;;;7.80;99.90;;;;;;5072443;28;20035;-65
2022/02/14 08:38:59;;;;;;;0.15;0.15;;;7.80;99.90;;;;;;5071430;28;20037;-66
2022/02/14 08:41:25;;;;;;;0.10;0.10;;;7.90;99.90;;;;;;5072524;28;20085;-64
2022/02/14 08:43:51;;;;;;;1.90;0.32;;;7.90;99.90;;;;;;5072541;28;20032;-65
2022/02/14 08:46:20;;;;;;;0.25;0.25;;;8.00;99.90;;;;;;5072647;28;20039;-65
2022/02/14 08:48:53;;;;;;;0.20;0.20;;;8.10;99.90;;;;;;5071076;28;20465;-65
2022/02/14 08:51:21;;;;;;;0.10;0.10;;;8.10;99.90;;;;;;5071342;28;20048;-65
2022/02/14 08:53:48;;;;;;;0.10;0.10;;;8.20;99.90;;;;;;5071542;28;20029;-64
2022/02/14 08:56:15;;;;;;;0.17;0.17;;;8.20;99.90;;;;;;5072629;28;20040;-64
2022/02/14 08:58:42;;;;;;;0.03;0.03;;;8.30;99.90;;;;;;5072331;28;20029;-65
2022/02/14 09:01:11;;;;;;;0.22;0.22;;;8.30;99.90;;;;;;5070767;28;20037;-65
2022/02/14 09:03:39;;;;;;;0.15;0.15;;;8.30;99.90;;;;;;5067217;28;20098;-66
2022/02/14 09:06:06;;;;;;;0.00;0.00;;;8.30;99.90;;;;;;5052460;28;20037;-65
2022/02/14 09:08:32;;;;;;;0.00;0.00;;;8.30;99.90;;;;;;5050857;28;20453;-66
2022/02/14 09:11:01;;;;;;;0.35;0.35;;;8.30;99.90;;;;;;5051848;28;20108;-66
2022/02/14 09:13:28;;;;;;;1.10;0.90;;;8.30;99.90;;;;;;5051263;28;20033;-65
2022/02/14 09:15:57;;;;;;;0.08;0.08;;;8.30;99.90;;;;;;5054783;28;20089;-66
2022/02/14 09:18:23;;;;;;;0.73;0.73;;;8.30;99.90;;;;;;5071800;28;20040;-66
2022/02/14 09:20:49;;;;;;;0.30;0.30;;;8.30;99.90;;;;;;5071864;28;20040;-66
2022/02/14 09:23:15;;;;;;;0.00;0.00;;;8.30;99.90;;;;;;5072009;28;20094;-65
2022/02/14 09:25:41;;;;;;;0.20;0.08;;;8.40;99.90;;;;;;5071747;28;20035;-65
2022/02/14 09:28:07;;;;;;;0.50;0.50;;;8.40;99.90;;;;;;5072034;28;20033;-65
2022/02/14 09:30:34;;;;;;;0.10;0.10;;;8.40;99.90;;;;;;5053102;28;20032;-65
2022/02/14 09:33:00;;;;;;;0.00;0.00;;;8.40;99.90;;;;;;5070662;28;20035;-65
2022/02/14 09:35:27;;;;;;;0.30;0.30;;;8.40;99.90;;;;;;5072178;28;20029;-65
2022/02/14 09:38:02;;;;;;;0.35;0.35;;;8.50;99.90;;;;;;5070350;28;20078;-65
2022/02/14 09:40:30;;;;;;;0.43;0.43;;;8.60;99.90;;;;;;5071668;28;20040;-65
2022/02/14 09:42:58;;;;;;;0.63;0.52;;;8.70;99.90;;;;;;5070469;28;20037;-65
2022/02/14 09:45:26;;;;;;;0.00;0.00;;;8.80;99.90;;;;;;5071555;28;20044;-65
2022/02/14 09:48:03;;;;;;;0.30;0.30;;;8.90;99.90;;;;;;5069970;28;20045;-65
2022/02/14 09:50:33;;;;;;;0.00;0.00;;;9.00;99.90;;;;;;5070595;28;20052;-65
2022/02/14 09:53:02;;;;;;;0.85;0.85;;;9.00;99.90;;;;;;5071283;28;20094;-65
2022/02/14 09:55:28;;;;;;;0.10;0.10;;;9.10;99.90;;;;;;5070162;28;20039;-64
2022/02/14 09:57:54;;;;;;;0.00;0.00;;;9.20;99.90;;;;;;5070453;28;20041;-65
2022/02/14 10:00:20;;;;;;;0.00;0.00;;;9.20;99.90;;;;;;5070426;28;20025;-64
2022/02/14 10:02:46;;;;;;;0.43;0.43;;;9.20;99.90;;;;;;5071557;28;20025;-65
2022/02/14 10:05:18;;;;;;;0.17;0.17;;;9.30;99.90;;;;;;5071676;28;20469;-65
2022/02/14 10:07:52;;;;;;;0.10;0.10;;;9.40;99.90;;;;;;5071411;28;20496;-65
2022/02/14 10:10:25;;;;;;;0.20;0.20;;;9.40;99.90;;;;;;5071427;28;20043;-65
2022/02/14 10:12:55;;;;;;;0.15;0.15;;;9.50;99.90;;;;;;5069381;28;20043;-65
2022/02/14 10:15:23;;;;;;;0.32;0.32;;;9.50;99.90;;;;;;5070120;28;20050;-65
2022/02/14 10:17:53;;;;;;;0.00;0.00;;;9.70;99.90;;;;;;5069860;28;20101;-65
2022/02/14 10:20:24;;;;;;;0.00;0.00;;;10.00;99.90;;;;;;5070351;28;20127;-65
2022/02/14 10:22:54;;;;;;;0.25;0.25;;;10.10;99.90;;;;;;5069647;28;20060;-65
2022/02/14 10:25:30;;;;;;;0.10;0.10;;;10.30;99.90;;;;;;5070822;28;20037;-65
2022/02/14 10:28:35;;;;;;;0.40;0.40;;;10.30;99.90;;;;;;5069015;28;20028;-66
2022/02/14 10:31:08;;;;;;;1.17;1.02;;;10.10;99.90;;;;;;4992492;28;20585;-65
2022/02/14 10:33:57;;;;;;;0.30;0.30;;;10.10;99.90;;;;;;4992800;28;20543;-65
2022/02/14 10:36:25;;;;;;;2.20;0.75;;;10.20;99.90;;;;;;5009032;28;20053;-65
2022/02/14 10:38:51;;;;;;;0.10;0.10;;;10.10;99.90;;;;;;5008860;28;20038;-66
2022/02/14 10:41:17;;;;;;;0.85;0.85;;;10.10;99.90;;;;;;5008724;28;20045;-65
2022/02/14 10:43:44;;;;;;;0.00;0.00;;;10.10;99.90;;;;;;5012449;28;20136;-66
2022/02/14 10:46:22;;;;;;;0.10;0.10;;;10.20;99.90;;;;;;5012500;28;20592;-66
2022/02/14 10:48:55;;;;;;;0.10;0.10;;;10.30;99.90;;;;;;5012269;28;20038;-66
2022/02/14 10:51:21;;;;;;;0.00;0.00;;;10.20;99.90;;;;;;5012859;28;20042;-66
2022/02/14 10:53:49;;;;;;;0.10;0.10;;;10.20;99.90;;;;;;4992633;28;20034;-65
2022/02/14 10:56:18;;;;;;;4.72;1.70;;;10.20;99.90;;;;;;5009115;28;20557;-66
2022/02/14 10:58:49;;;;;;;1.02;0.93;;;10.20;99.90;;;;;;4993090;28;20038;-66
2022/02/14 11:01:16;;;;;;;2.08;1.45;;;10.60;99.90;;;;;;5010508;28;20098;-66
2022/02/14 11:03:44;;;;;;;0.25;0.25;;;10.90;99.90;;;;;;5054486;28;20359;-66
2022/02/14 11:06:11;;;;;;;0.00;0.00;;;11.10;99.90;;;;;;5074424;28;20196;-66
2022/02/14 11:08:39;;;;;;;0.05;0.05;;;11.30;99.90;;;;;;5072993;28;20028;-66
2022/02/14 11:11:09;;;;;;;9.75;2.45;;;11.30;99.90;;;;;;5074121;28;20078;-66
2022/02/14 11:13:38;;;;;;;3.45;1.35;;;11.50;99.90;;;;;;5056420;28;20025;-68
2022/02/14 11:16:05;;;;;;;0.90;0.68;;;11.60;99.90;;;;;;5072857;28;20136;-70
2022/02/14 11:18:37;;;;;;;0.32;0.20;;;11.70;99.90;;;;;;5072970;28;20028;-70
2022/02/14 11:21:03;;;;;;;2.50;1.40;;;11.70;99.90;;;;;;5072865;28;20373;-73
2022/02/14 11:23:36;;;;;;;0.20;0.20;;;11.40;99.90;;;;;;5073906;28;20045;-73
2022/02/14 11:26:26;;;;;;;0.28;0.28;;;11.20;99.90;;;;;;5072840;28;20029;-66
2022/02/14 11:29:30;;;;;;;2.00;1.88;;;11.10;99.90;;;;;;5072381;28;20456;-66
2022/02/14 11:32:19;;;;;;;0.25;0.22;;;10.90;99.90;;;;;;5072850;28;20037;-63
2022/02/14 11:35:05;;;;;;;1.38;1.08;;;11.00;99.90;;;;;;5072748;28;20085;-70
2022/02/14 11:38:00;;;;;;;0.95;0.95;;;11.10;99.90;;;;;;5074127;28;20033;-63
2022/02/14 11:40:35;;;;;;;0.00;0.00;;;11.20;99.90;;;;;;5072459;28;20436;-62
2022/02/14 11:43:25;;;;;;;2.55;1.45;;;11.50;99.90;;;;;;5073462;28;20393;-66
2022/02/14 11:46:19;;;;;;;0.00;0.00;;;11.50;99.90;;;;;;5072771;28;20079;-63
2022/02/14 11:49:12;;;;;;;1.83;1.17;;;11.60;99.90;;;;;;5073528;28;20044;-67
2022/02/14 11:51:44;;;;;;;0.10;0.10;;;11.70;99.90;;;;;;5073463;28;20051;-66
2022/02/14 11:54:44;;;;;;;0.93;0.93;;;11.80;99.90;;;;;;5071978;28;20072;-66
2022/02/14 11:57:31;;;;;;;0.00;0.00;;;11.80;99.90;;;;;;5072180;28;20090;-66
2022/02/14 12:00:24;;;;;;;0.00;0.00;;;11.90;99.90;;;;;;5073453;28;20037;-66
2022/02/14 12:03:16;;;;;;;0.28;0.28;;;12.10;99.90;;;;;;5070972;28;20047;-64
2022/02/14 12:06:00;;;;;;;0.05;0.05;;;12.10;99.90;;;;;;5073062;28;20105;-66
2022/02/14 12:08:46;;;;;;;0.20;0.20;;;12.30;99.90;;;;;;5073207;28;20056;-66
2022/02/14 12:11:11;;;;;;;0.00;0.00;;;12.30;99.90;;;;;;5071887;28;20111;-66
2022/02/14 12:13:55;;;;;;;0.20;0.20;;;12.30;99.90;;;;;;5055209;28;20119;-65
2022/02/14 12:22:03;;;;;;;0.35;0.35;;;12.80;99.90;;;;;;5072899;28;20047;-65
2022/02/14 12:24:29;;;;;;;0.08;0.08;;;12.90;99.90;;;;;;5055009;28;20040;-65
2022/02/14 12:27:00;;;;;;;2.40;2.10;;;12.70;99.90;;;;;;5071554;28;20044;-66
2022/02/14 12:29:32;;;;;;;0.13;0.13;;;12.80;99.90;;;;;;5071720;28;20453;-66
2022/02/14 12:31:58;;;;;;;0.10;0.10;;;12.80;99.90;;;;;;5072621;28;20044;-65
2022/02/14 12:34:30;;;;;;;0.25;0.20;;;12.80;99.90;;;;;;5072876;28;20512;-65
2022/02/14 12:37:08;;;;;;;4.40;0.63;;;12.70;99.90;;;;;;5071480;28;20035;-65
2022/02/14 12:39:40;;;;;;;0.00;0.00;;;12.60;99.90;;;;;;5073050;28;20032;-66
2022/02/14 12:42:28;;;;;;;0.63;0.63;;;12.70;99.90;;;;;;5072492;28;20048;-65
2022/02/14 12:44:57;;;;;;;0.45;0.43;;;12.70;99.90;;;;;;5072510;28;20451;-66
2022/02/14 12:47:26;;;;;;;0.03;0.03;;;12.60;99.90;;;;;;5071202;28;20546;-66
2022/02/14 12:50:10;;;;;;;0.10;0.10;;;12.60;99.90;;;;;;5072720;28;20028;-66
2022/02/14 12:52:37;;;;;;;0.10;0.10;;;12.60;99.90;;;;;;5072656;28;20058;-66
2022/02/14 12:55:04;;;;;;;0.00;0.00;;;12.60;99.90;;;;;;5071980;28;20147;-65
2022/02/14 12:57:40;;;;;;;0.00;0.00;;;12.70;99.90;;;;;;5070443;28;20044;-65
2022/02/14 13:00:34;;;;;;;0.00;0.00;;;12.70;99.90;;;;;;5059036;28;20028;-65
2022/02/14 13:03:07;;;;;;;0.32;0.32;;;12.70;99.90;;;;;;5073471;28;20031;-65
2022/02/14 13:05:34;;;;;;;0.00;0.00;;;12.70;99.90;;;;;;5070765;28;20029;-65
2022/02/14 13:08:04;;;;;;;0.28;0.28;;;12.70;99.90;;;;;;5071714;28;20029;-65